Eviacement III — 3EWG2 — position and weather

sailwx.info

Track history (hours):
 
Tides and Currents Weather Stations Pressure Air Temp Water Temp Dewpoint Dewpoint Depression Visibility Wind Speed Wind Dir Waves Ship Positions

Eviacement III

Last reported at 2017-Sep-19 23:13 UTC. Time now 2017-Sep-23 07:43 UTC.
Position N 37°26' E 000°30'.

Length 117 m; draft 4.4 m.

Type: Ship. MMSI: 354827000.

Date/timePositionNaut miles runAvg speedWind from/ knotsBaromVisibWave heightAir tempDewpointWater temp
2017-Sep-19 23:13N 37°26' E 000°30'2 9.2
2017-Sep-19 22:58N 37°25' E 000°27'5 9.1
2017-Sep-19 22:24N 37°25' E 000°20'8 9.2
2017-Sep-19 21:30N 37°26' E 000°10'5 9.2
2017-Sep-19 21:00N 37°26' E 000°04'4 9.2
2017-Sep-19 20:30N 37°26' W 000°02'5 9.1
2017-Sep-19 20:00N 37°26' W 000°07'5 9.2
2017-Sep-19 19:30N 37°27' W 000°13'5 9.3
2017-Sep-19 19:00N 37°27' W 000°19'5 9.5
2017-Sep-19 18:30N 37°27' W 000°25'5 9.1
2017-Sep-19 17:56N 37°26' W 000°31'4 9.2
2017-Sep-19 17:26N 37°27' W 000°37'4 9.0
2017-Sep-19 17:00N 37°28' W 000°42'5 9.3
2017-Sep-19 16:30N 37°29' W 000°47'5 9.5
2017-Sep-19 16:00N 37°29' W 000°53'5 9.3
2017-Sep-19 15:30N 37°30' W 000°59'3 0.1
2017-Sep-17 18:01N 37°33' W 000°59'0 6.5
2017-Sep-17 18:00N 37°33' W 000°59'3 6.1
2017-Sep-17 17:29N 37°30' W 000°57'4 8.1
2017-Sep-17 16:59N 37°29' W 000°52'4 8.9
2017-Sep-17 16:30N 37°28' W 000°47'4 8.7
2017-Sep-17 15:59N 37°27' W 000°41'414 8.1
2017-Sep-15 12:43N 37°18' E 007°60'2 8.9
2017-Sep-15 12:29N 37°18' E 008°02'10 9.1
2017-Sep-15 11:24N 37°18' E 008°14'54 8.3
2017-Sep-15 04:51N 37°29' E 009°21'21 7.9
2017-Sep-15 02:07N 37°36' E 009°47'11 8.0
2017-Sep-15 00:41N 37°39' E 010°01'2 8.0
2017-Sep-15 00:27N 37°39' E 010°03'4 7.9
2017-Sep-14 23:59N 37°39' E 010°08'11 8.0
2017-Sep-14 22:40N 37°39' E 010°21'2 8.4
2017-Sep-14 22:27N 37°38' E 010°23'4 8.2
2017-Sep-14 21:57N 37°37' E 010°28'13 8.3
2017-Sep-14 20:21N 37°33' E 010°44'102 8.5
2017-Sep-14 08:22N 36°52' E 012°42'3 7.8
2017-Sep-14 07:59N 36°52' E 012°45'4 7.9
2017-Sep-14 07:30N 36°51' E 012°50'4 7.9
2017-Sep-14 07:00N 36°50' E 012°55'4 7.7
2017-Sep-14 06:30N 36°49' E 012°59'4 7.7
2017-Sep-14 06:00N 36°48' E 013°04'4 7.7
2017-Sep-14 05:30N 36°47' E 013°09'4 7.6
2017-Sep-14 05:00N 36°46' E 013°13'4 7.6
2017-Sep-14 04:30N 36°45' E 013°18'4 7.7
2017-Sep-14 04:00N 36°45' E 013°23'4 7.4
2017-Sep-14 03:30N 36°44' E 013°27'4 7.5
2017-Sep-14 03:00N 36°42' E 013°31'4 7.5
2017-Sep-14 02:31N 36°40' E 013°35'4 7.5
2017-Sep-14 02:00N 36°39' E 013°40'4 7.6
2017-Sep-14 01:31N 36°38' E 013°44'4 7.7
2017-Sep-14 01:00N 36°36' E 013°48'4 7.5
2017-Sep-14 00:30N 36°34' E 013°53'4 7.5
2017-Sep-14 00:01N 36°33' E 013°57'4 7.6
2017-Sep-13 23:30N 36°32' E 014°02'4 7.7
2017-Sep-13 23:00N 36°31' E 014°06'4 7.6
2017-Sep-13 22:30N 36°29' E 014°11'4 7.7
2017-Sep-13 22:00N 36°28' E 014°15'4 7.6
2017-Sep-13 21:30N 36°28' E 014°20'4 7.5
2017-Sep-13 21:00N 36°27' E 014°24'4 7.6
2017-Sep-13 20:30N 36°26' E 014°29'4 7.7
2017-Sep-13 20:00N 36°26' E 014°34'4 7.8
2017-Sep-13 19:30N 36°27' E 014°38'4 7.9
2017-Sep-13 19:00N 36°28' E 014°43'4 7.7
2017-Sep-13 18:30N 36°29' E 014°48'4 7.9
2017-Sep-13 18:00N 36°30' E 014°53'5 7.9
2017-Sep-13 17:25N 36°31' E 014°58'3 7.9
2017-Sep-13 17:00N 36°31' E 015°02'4 8.2
2017-Sep-13 16:30N 36°32' E 015°07'4 7.7
2017-Sep-13 15:59N 36°35' E 015°11'4 7.9
2017-Sep-13 15:30N 36°38' E 015°14'4 7.6
2017-Sep-13 15:00N 36°42' E 015°16'6 7.4
2017-Sep-13 14:15N 36°47' E 015°19'12 7.4
2017-Sep-13 12:38N 36°57' E 015°26'1 7.8
2017-Sep-13 12:29N 36°58' E 015°26'4 8.1
2017-Sep-13 12:00N 37°02' E 015°27'  
2017-Sep-11 00:07N 36°21' E 015°07'1 6.9
2017-Sep-11 00:00N 36°20' E 015°06'3 6.7
2017-Sep-10 23:30N 36°18' E 015°03'3 6.9
2017-Sep-10 23:00N 36°15' E 015°00'4 7.2
2017-Sep-10 22:30N 36°13' E 014°57'4 7.2
2017-Sep-10 22:00N 36°11' E 014°54'4 7.2
2017-Sep-10 21:30N 36°09' E 014°50'4 7.4
2017-Sep-10 21:00N 36°06' E 014°46'4 7.5
2017-Sep-10 20:30N 36°04' E 014°42'4 7.7
2017-Sep-10 20:00N 36°02' E 014°39'4 8.2
2017-Sep-10 19:30N 35°58' E 014°36'4 8.9
2017-Sep-10 19:00N 35°55' E 014°32'  
Track history (hours):
 
Tides and Currents Weather Stations Pressure Air Temp Water Temp Dewpoint Dewpoint Depression Visibility Wind Speed Wind Dir Waves Ship Positions

Eviacement III

Last reported at 2017-Sep-19 23:13 UTC. Time now 2017-Sep-23 07:43 UTC.
Position N 37°26' E 000°30'.

Length 117 m; draft 4.4 m.

Type: Ship. MMSI: 354827000.

Date/timePositionNaut miles runAvg speedWind from/ knotsBaromVisibWave heightAir tempDewpointWater temp
2017-Sep-19 23:13N 37°26' E 000°30'2 9.2
2017-Sep-19 22:58N 37°25' E 000°27'5 9.1
2017-Sep-19 22:24N 37°25' E 000°20'8 9.2
2017-Sep-19 21:30N 37°26' E 000°10'5 9.2
2017-Sep-19 21:00N 37°26' E 000°04'4 9.2
2017-Sep-19 20:30N 37°26' W 000°02'5 9.1
2017-Sep-19 20:00N 37°26' W 000°07'5 9.2
2017-Sep-19 19:30N 37°27' W 000°13'5 9.3
2017-Sep-19 19:00N 37°27' W 000°19'5 9.5
2017-Sep-19 18:30N 37°27' W 000°25'5 9.1
2017-Sep-19 17:56N 37°26' W 000°31'4 9.2
2017-Sep-19 17:26N 37°27' W 000°37'4 9.0
2017-Sep-19 17:00N 37°28' W 000°42'5 9.3
2017-Sep-19 16:30N 37°29' W 000°47'5 9.5
2017-Sep-19 16:00N 37°29' W 000°53'5 9.3
2017-Sep-19 15:30N 37°30' W 000°59'3 0.1
2017-Sep-17 18:01N 37°33' W 000°59'0 6.5
2017-Sep-17 18:00N 37°33' W 000°59'3 6.1
2017-Sep-17 17:29N 37°30' W 000°57'4 8.1
2017-Sep-17 16:59N 37°29' W 000°52'4 8.9
2017-Sep-17 16:30N 37°28' W 000°47'4 8.7
2017-Sep-17 15:59N 37°27' W 000°41'414 8.1
2017-Sep-15 12:43N 37°18' E 007°60'2 8.9
2017-Sep-15 12:29N 37°18' E 008°02'10 9.1
2017-Sep-15 11:24N 37°18' E 008°14'54 8.3
2017-Sep-15 04:51N 37°29' E 009°21'21 7.9
2017-Sep-15 02:07N 37°36' E 009°47'11 8.0
2017-Sep-15 00:41N 37°39' E 010°01'2 8.0
2017-Sep-15 00:27N 37°39' E 010°03'4 7.9
2017-Sep-14 23:59N 37°39' E 010°08'11 8.0
2017-Sep-14 22:40N 37°39' E 010°21'2 8.4
2017-Sep-14 22:27N 37°38' E 010°23'4 8.2
2017-Sep-14 21:57N 37°37' E 010°28'13 8.3
2017-Sep-14 20:21N 37°33' E 010°44'102 8.5
2017-Sep-14 08:22N 36°52' E 012°42'3 7.8
2017-Sep-14 07:59N 36°52' E 012°45'4 7.9
2017-Sep-14 07:30N 36°51' E 012°50'4 7.9
2017-Sep-14 07:00N 36°50' E 012°55'4 7.7
2017-Sep-14 06:30N 36°49' E 012°59'4 7.7
2017-Sep-14 06:00N 36°48' E 013°04'4 7.7
2017-Sep-14 05:30N 36°47' E 013°09'4 7.6
2017-Sep-14 05:00N 36°46' E 013°13'4 7.6
2017-Sep-14 04:30N 36°45' E 013°18'4 7.7
2017-Sep-14 04:00N 36°45' E 013°23'4 7.4
2017-Sep-14 03:30N 36°44' E 013°27'4 7.5
2017-Sep-14 03:00N 36°42' E 013°31'4 7.5
2017-Sep-14 02:31N 36°40' E 013°35'4 7.5
2017-Sep-14 02:00N 36°39' E 013°40'4 7.6
2017-Sep-14 01:31N 36°38' E 013°44'4 7.7
2017-Sep-14 01:00N 36°36' E 013°48'4 7.5
2017-Sep-14 00:30N 36°34' E 013°53'4 7.5
2017-Sep-14 00:01N 36°33' E 013°57'4 7.6
2017-Sep-13 23:30N 36°32' E 014°02'4 7.7
2017-Sep-13 23:00N 36°31' E 014°06'4 7.6
2017-Sep-13 22:30N 36°29' E 014°11'4 7.7
2017-Sep-13 22:00N 36°28' E 014°15'4 7.6
2017-Sep-13 21:30N 36°28' E 014°20'4 7.5
2017-Sep-13 21:00N 36°27' E 014°24'4 7.6
2017-Sep-13 20:30N 36°26' E 014°29'4 7.7
2017-Sep-13 20:00N 36°26' E 014°34'4 7.8
2017-Sep-13 19:30N 36°27' E 014°38'4 7.9
2017-Sep-13 19:00N 36°28' E 014°43'4 7.7
2017-Sep-13 18:30N 36°29' E 014°48'4 7.9
2017-Sep-13 18:00N 36°30' E 014°53'5 7.9
2017-Sep-13 17:25N 36°31' E 014°58'3 7.9
2017-Sep-13 17:00N 36°31' E 015°02'4 8.2
2017-Sep-13 16:30N 36°32' E 015°07'4 7.7
2017-Sep-13 15:59N 36°35' E 015°11'4 7.9
2017-Sep-13 15:30N 36°38' E 015°14'4 7.6
2017-Sep-13 15:00N 36°42' E 015°16'6 7.4
2017-Sep-13 14:15N 36°47' E 015°19'12 7.4
2017-Sep-13 12:38N 36°57' E 015°26'1 7.8
2017-Sep-13 12:29N 36°58' E 015°26'4 8.1
2017-Sep-13 12:00N 37°02' E 015°27'  
2017-Sep-11 00:07N 36°21' E 015°07'1 6.9
2017-Sep-11 00:00N 36°20' E 015°06'3 6.7
2017-Sep-10 23:30N 36°18' E 015°03'3 6.9
2017-Sep-10 23:00N 36°15' E 015°00'4 7.2
2017-Sep-10 22:30N 36°13' E 014°57'4 7.2
2017-Sep-10 22:00N 36°11' E 014°54'4 7.2
2017-Sep-10 21:30N 36°09' E 014°50'4 7.4
2017-Sep-10 21:00N 36°06' E 014°46'4 7.5
2017-Sep-10 20:30N 36°04' E 014°42'4 7.7
2017-Sep-10 20:00N 36°02' E 014°39'4 8.2
2017-Sep-10 19:30N 35°58' E 014°36'4 8.9
2017-Sep-10 19:00N 35°55' E 014°32'  

Dump ship's entire track history